Time;durP1;ratioP1;P1;durP2;ratioP2;P2;SDS_P1;SDS_P2;PMS_P1;PMS_P2;Temp;Humidity;BMP_temperature;BMP_pressure;BME280_temperature;BME280_humidity;BME280_pressure;Samples;Min_cycle;Max_cycle;Signal;HPM_P1;HPM_P2
2023/09/02 00:01:56;;;;;;;0.80;0.80;;;;;;;21.32;54.35;100733.81;4568733;27;20075;-70
2023/09/02 00:04:07;;;;;;;0.80;0.80;;;;;;;21.31;54.61;100727.22;4571082;27;20540;-70
2023/09/02 00:06:18;;;;;;;0.98;0.88;;;;;;;21.30;54.45;100724.72;4568333;27;20125;-70
2023/09/02 00:08:28;;;;;;;0.77;0.77;;;;;;;21.28;53.83;100713.59;4570156;27;20119;-71
2023/09/02 00:10:39;;;;;;;1.77;1.10;;;;;;;21.32;53.64;100728.91;4554951;27;20032;-70
2023/09/02 00:12:49;;;;;;;1.00;0.95;;;;;;;21.32;53.70;100719.44;4571231;27;20037;-70
2023/09/02 00:14:59;;;;;;;1.30;1.20;;;;;;;21.32;54.05;100722.31;4569021;27;20085;-70
2023/09/02 00:17:11;;;;;;;0.90;0.90;;;;;;;21.30;54.04;100718.97;4569455;27;20505;-69
2023/09/02 00:19:21;;;;;;;1.27;1.00;;;;;;;21.29;54.09;100711.56;4554022;28;21768;-69
2023/09/02 00:21:33;;;;;;;1.38;1.00;;;;;;;21.29;54.13;100712.41;4568727;27;20077;-70
2023/09/02 00:23:46;;;;;;;1.10;0.90;;;;;;;21.29;54.22;100709.56;4569088;27;20949;-70
2023/09/02 00:25:56;;;;;;;1.20;0.90;;;;;;;21.28;54.48;100713.59;4560606;28;20029;-69
2023/09/02 00:28:06;;;;;;;0.60;0.60;;;;;;;21.30;54.13;100713.22;4567618;27;20396;-70
2023/09/02 00:30:17;;;;;;;0.68;0.52;;;;;;;21.29;53.92;100721.03;4569334;27;20036;-70
2023/09/02 00:32:29;;;;;;;0.70;0.70;;;;;;;21.29;53.86;100720.19;4551973;27;20036;-70
2023/09/02 00:34:39;;;;;;;0.95;0.88;;;;;;;21.28;53.75;100725.09;4570010;27;20031;-69
2023/09/02 00:36:49;;;;;;;1.33;1.05;;;;;;;21.25;53.69;100722.97;4570321;27;20049;-70
2023/09/02 00:39:00;;;;;;;0.70;0.70;;;;;;;21.29;54.05;100721.03;4568793;27;20040;-70
2023/09/02 00:41:26;;;;;;;1.05;0.95;;;;;;;21.30;53.71;100724.72;4558199;28;20047;-69
2023/09/02 00:43:39;;;;;;;1.00;0.90;;;;;;;21.30;53.32;100731.31;4568535;27;20040;-70
2023/09/02 00:45:52;;;;;;;1.17;1.00;;;;;;;21.27;53.24;100732.03;4551192;28;20060;-69
2023/09/02 00:48:03;;;;;;;1.00;0.90;;;;;;;21.24;53.26;100727.03;4535694;27;20442;-70
2023/09/02 00:50:13;;;;;;;0.80;0.70;;;;;;;21.27;53.16;100726.31;4569446;27;20132;-70
2023/09/02 00:52:24;;;;;;;1.25;0.82;;;;;;;21.21;53.26;100724.06;4553434;28;20394;-69
2023/09/02 00:54:34;;;;;;;1.10;0.90;;;;;;;21.29;53.22;100738.25;4549266;28;20025;-70
2023/09/02 00:56:45;;;;;;;1.00;0.90;;;;;;;21.29;53.19;100734.53;4552032;28;20075;-70
2023/09/02 00:58:59;;;;;;;1.27;0.95;;;;;;;21.27;53.37;100737.78;4567129;27;20052;-70
2023/09/02 01:01:10;;;;;;;1.08;0.98;;;;;;;21.22;52.72;100735.19;4553767;28;21339;-70
2023/09/02 01:03:21;;;;;;;0.80;0.80;;;;;;;21.26;52.81;100746.78;4560010;28;20110;-70
2023/09/02 01:05:33;;;;;;;1.35;0.90;;;;;;;21.25;52.95;100742.25;4568686;27;20054;-70
2023/09/02 01:07:45;;;;;;;0.85;0.80;;;;;;;21.21;52.89;100733.53;4567306;27;20098;-70
2023/09/02 01:09:55;;;;;;;1.35;0.80;;;;;;;21.14;53.07;100716.09;4550637;28;20037;-73
2023/09/02 01:12:07;;;;;;;1.10;1.00;;;;;;;21.20;52.93;100734.72;4549119;27;20102;-70
2023/09/02 01:14:17;;;;;;;0.75;0.73;;;;;;;21.26;53.00;100741.03;4554131;28;20032;-70
2023/09/02 01:16:28;;;;;;;0.70;0.70;;;;;;;21.23;52.83;100736.84;4559436;28;20119;-70
2023/09/02 01:18:39;;;;;;;0.55;0.55;;;;;;;21.25;52.60;100745.94;4549448;28;20071;-70
2023/09/02 01:21:07;;;;;;;0.60;0.60;;;;;;;21.27;52.92;100742.69;4568796;27;20048;-70
2023/09/02 01:23:21;;;;;;;0.60;0.60;;;;;;;21.28;53.06;100750.94;4549770;28;20037;-70
2023/09/02 01:25:43;;;;;;;0.63;0.63;;;;;;;21.27;52.56;100754.16;4567833;27;20128;-70
2023/09/02 01:28:24;;;;;;;0.93;0.57;;;;;;;21.27;52.86;100751.28;4560478;27;20776;-70
2023/09/02 01:30:36;;;;;;;0.88;0.77;;;;;;;21.25;52.57;100750.84;4559407;27;20044;-70
2023/09/02 01:32:51;;;;;;;0.65;0.65;;;;;;;21.22;52.40;100752.41;4568564;27;20037;-69
2023/09/02 01:35:07;;;;;;;0.60;0.50;;;;;;;21.21;52.38;100755.66;4549703;28;20102;-70
2023/09/02 01:37:19;;;;;;;0.68;0.68;;;;;;;21.13;52.33;100748.03;4567433;27;20084;-70
2023/09/02 01:39:31;;;;;;;0.47;0.47;;;;;;;21.17;51.91;100754.72;4567648;27;20040;-70
2023/09/02 01:41:43;;;;;;;0.75;0.65;;;;;;;21.24;51.87;100772.13;4559220;27;20036;-70
2023/09/02 01:43:54;;;;;;;1.58;0.60;;;;;;;21.24;51.97;100772.97;4553639;28;20079;-70
2023/09/02 01:46:06;;;;;;;0.50;0.50;;;;;;;21.25;51.83;100766.03;4568901;27;20775;-69
2023/09/02 01:48:18;;;;;;;0.40;0.40;;;;;;;21.24;51.84;100766.38;4551906;28;20048;-70
2023/09/02 01:50:30;;;;;;;0.40;0.40;;;;;;;21.24;52.04;100767.22;4567849;27;20098;-70
2023/09/02 01:52:42;;;;;;;0.40;0.40;;;;;;;21.21;51.95;100770.84;4559672;28;20039;-69
2023/09/02 01:54:53;;;;;;;0.60;0.60;;;;;;;21.23;52.06;100767.59;4550815;28;20036;-70
2023/09/02 01:57:04;;;;;;;0.68;0.40;;;;;;;21.21;52.57;100767.97;4554447;28;20040;-70
2023/09/02 01:59:15;;;;;;;0.50;0.50;;;;;;;21.23;52.14;100774.16;4551616;28;20937;-70
2023/09/02 02:01:25;;;;;;;0.50;0.50;;;;;;;21.24;52.54;100778.72;4560249;28;20036;-70
2023/09/02 02:03:48;;;;;;;0.40;0.40;;;;;;;21.23;52.53;100782.78;4562140;27;20047;-70
2023/09/02 02:06:00;;;;;;;0.45;0.45;;;;;;;21.22;52.66;100786.84;4544041;28;20025;-70
2023/09/02 02:08:19;;;;;;;0.60;0.60;;;;;;;21.17;52.55;100777.69;4570874;27;20040;-70
2023/09/02 02:10:30;;;;;;;0.70;0.70;;;;;;;21.22;52.48;100781.13;4570728;27;20670;-70
2023/09/02 02:12:41;;;;;;;0.60;0.60;;;;;;;21.23;52.35;100771.28;4571322;27;20836;-69
2023/09/02 02:14:52;;;;;;;0.80;0.60;;;;;;;21.19;52.91;100770.38;4556259;28;20020;-70
2023/09/02 02:17:03;;;;;;;0.85;0.60;;;;;;;21.17;53.19;100769.91;4560765;28;20040;-70
2023/09/02 02:19:14;;;;;;;0.50;0.50;;;;;;;21.20;53.59;100771.22;4562639;28;20115;-70
2023/09/02 02:21:26;;;;;;;0.82;0.70;;;;;;;21.23;53.68;100777.03;4571477;27;20048;-70
2023/09/02 02:23:37;;;;;;;0.88;0.60;;;;;;;21.16;53.65;100771.09;4561535;28;20182;-70
2023/09/02 02:25:47;;;;;;;0.55;0.55;;;;;;;21.18;53.49;100780.19;4558846;28;20635;-71
2023/09/02 02:27:57;;;;;;;0.50;0.50;;;;;;;21.21;53.79;100795.84;4560966;27;20028;-70
2023/09/02 02:30:08;;;;;;;0.52;0.52;;;;;;;21.21;53.50;100788.06;4558852;28;21070;-70
2023/09/02 02:32:20;;;;;;;0.60;0.60;;;;;;;21.19;54.07;100783.88;4553422;28;20480;-70
2023/09/02 02:34:30;;;;;;;0.50;0.50;;;;;;;21.08;53.94;100769.22;4571383;27;20032;-70
2023/09/02 02:36:41;;;;;;;0.68;0.68;;;;;;;21.20;53.86;100783.50;4570283;27;20485;-70
2023/09/02 02:38:52;;;;;;;0.57;0.57;;;;;;;21.23;53.72;100787.69;4556007;28;20037;-70
2023/09/02 02:41:02;;;;;;;0.60;0.60;;;;;;;21.22;54.02;100786.84;4554951;28;20196;-70
2023/09/02 02:43:13;;;;;;;1.20;0.57;;;;;;;21.19;54.01;100776.09;4552550;27;20124;-70
2023/09/02 02:45:23;;;;;;;0.60;0.60;;;;;;;21.20;53.63;100772.03;4561358;28;20030;-70
2023/09/02 02:47:33;;;;;;;0.65;0.65;;;;;;;21.17;54.46;100766.22;4561803;28;20048;-70
2023/09/02 02:49:44;;;;;;;0.80;0.80;;;;;;;21.19;54.49;100769.53;4550850;28;20578;-70
2023/09/02 02:51:56;;;;;;;1.00;0.90;;;;;;;21.20;54.13;100771.22;4559948;28;20040;-70
2023/09/02 02:54:08;;;;;;;1.00;0.90;;;;;;;21.21;54.44;100782.31;4554797;28;20028;-70
2023/09/02 02:56:19;;;;;;;0.95;0.80;;;;;;;21.18;54.31;100780.19;4568201;27;20036;-69
2023/09/02 02:58:31;;;;;;;0.80;0.80;;;;;;;21.20;54.19;100780.63;4556927;28;20032;-70
2023/09/02 03:00:43;;;;;;;0.82;0.82;;;;;;;21.20;53.92;100777.78;4569352;27;20087;-70
2023/09/02 03:02:54;;;;;;;0.70;0.70;;;;;;;21.19;54.28;100770.38;4561814;28;20663;-70
2023/09/02 03:05:05;;;;;;;1.00;0.90;;;;;;;21.17;53.96;100775.63;4573127;27;20102;-70
2023/09/02 03:07:16;;;;;;;1.00;0.90;;;;;;;21.16;54.45;100776.00;4550783;28;20104;-69
2023/09/02 03:09:27;;;;;;;0.90;0.90;;;;;;;21.16;54.43;100776.84;4560434;28;20028;-69
2023/09/02 03:11:38;;;;;;;0.88;0.80;;;;;;;21.11;54.04;100774.25;4561042;28;20032;-69
2023/09/02 03:13:48;;;;;;;1.17;1.00;;;;;;;21.20;54.03;100788.44;4570436;27;20474;-70
2023/09/02 03:16:04;;;;;;;1.10;1.00;;;;;;;21.21;54.15;100792.97;4555638;27;20097;-70
2023/09/02 03:18:14;;;;;;;1.27;1.13;;;;;;;21.17;54.50;100781.38;4567557;27;20598;-70
2023/09/02 03:20:25;;;;;;;1.10;0.98;;;;;;;21.17;54.49;100783.44;4555125;28;20032;-70
2023/09/02 03:22:35;;;;;;;1.65;1.08;;;;;;;21.17;54.33;100784.25;4553360;28;20074;-70
2023/09/02 03:24:46;;;;;;;0.90;0.90;;;;;;;21.07;54.26;100772.47;4550235;28;20446;-70
2023/09/02 03:26:56;;;;;;;0.95;0.85;;;;;;;21.17;54.18;100798.59;4553797;27;20678;-70
2023/09/02 03:29:07;;;;;;;2.92;1.00;;;;;;;21.12;54.28;100798.84;4570261;27;20511;-70
2023/09/02 03:31:19;;;;;;;1.27;1.10;;;;;;;21.16;53.82;100799.81;4559628;28;20127;-69
2023/09/02 03:33:30;;;;;;;0.95;0.85;;;;;;;21.19;54.25;100804.81;4557684;28;20021;-70
2023/09/02 03:35:41;;;;;;;1.50;1.00;;;;;;;21.13;53.86;100791.09;4555042;28;20036;-70
2023/09/02 03:37:52;;;;;;;1.00;1.00;;;;;;;21.17;53.92;100789.97;4554069;28;20115;-69
2023/09/02 03:40:03;;;;;;;1.48;1.10;;;;;;;21.14;54.51;100784.97;4541060;28;20040;-70
2023/09/02 03:42:14;;;;;;;1.15;1.05;;;;;;;21.10;54.12;100772.56;4569447;27;20039;-70
2023/09/02 03:44:24;;;;;;;1.50;1.20;;;;;;;21.17;54.36;100789.16;4570160;27;20097;-70
2023/09/02 03:46:35;;;;;;;1.70;1.30;;;;;;;21.16;54.26;100784.63;4553590;28;20038;-70
2023/09/02 03:48:48;;;;;;;1.40;1.30;;;;;;;21.16;54.38;100785.47;4557650;27;20025;-70
2023/09/02 03:51:11;;;;;;;1.40;1.30;;;;;;;21.13;54.34;100783.31;4569421;27;20032;-70
2023/09/02 03:53:22;;;;;;;1.90;1.30;;;;;;;21.16;54.50;100790.34;4544203;28;20037;-70
2023/09/02 03:55:33;;;;;;;2.13;1.40;;;;;;;21.13;54.51;100779.59;4539052;28;20036;-70
2023/09/02 03:57:43;;;;;;;1.88;1.30;;;;;;;21.16;54.33;100788.31;4569225;27;20499;-70
2023/09/02 03:59:54;;;;;;;2.00;1.60;;;;;;;21.15;54.37;100789.53;4559676;28;20037;-70
2023/09/02 04:02:05;;;;;;;2.33;1.63;;;;;;;21.14;54.58;100795.63;4551482;28;20421;-70
2023/09/02 04:04:16;;;;;;;1.75;1.35;;;;;;;21.17;54.31;100801.47;4554537;27;20031;-71
2023/09/02 04:06:26;;;;;;;1.65;1.52;;;;;;;21.16;54.06;100796.94;4553095;28;20059;-70
2023/09/02 04:08:37;;;;;;;1.42;1.33;;;;;;;21.13;54.34;100794.81;4554338;27;20036;-70
2023/09/02 04:10:52;;;;;;;2.35;1.55;;;;;;;21.14;53.80;100796.47;4555180;28;20055;-70
2023/09/02 04:13:03;;;;;;;2.17;1.58;;;;;;;21.13;53.76;100794.81;4552000;28;20033;-70
2023/09/02 04:15:13;;;;;;;1.80;1.40;;;;;;;21.12;53.33;100793.13;4569841;27;20060;-70
2023/09/02 04:17:24;;;;;;;1.50;1.40;;;;;;;21.15;53.47;100792.41;4568926;27;20066;-69
2023/09/02 04:19:34;;;;;;;1.70;1.48;;;;;;;21.14;53.68;100799.34;4567836;27;20545;-70
2023/09/02 04:21:46;;;;;;;2.00;1.60;;;;;;;21.14;53.80;100802.19;4554282;28;20529;-70
2023/09/02 04:23:57;;;;;;;2.08;1.40;;;;;;;21.15;53.27;100805.91;4559455;28;20048;-70
2023/09/02 04:26:08;;;;;;;1.65;1.50;;;;;;;21.08;53.63;100797.94;4559786;28;20038;-70
2023/09/02 04:28:19;;;;;;;1.80;1.60;;;;;;;21.13;53.14;100817.78;4555627;27;20040;-70
2023/09/02 04:30:30;;;;;;;1.73;1.50;;;;;;;21.12;53.27;100810.34;4568399;27;20664;-70
2023/09/02 04:32:40;;;;;;;1.70;1.50;;;;;;;21.12;53.58;100821.81;4549789;28;20143;-69
2023/09/02 04:34:52;;;;;;;1.80;1.50;;;;;;;21.14;53.43;100821.44;4536715;28;20103;-70
2023/09/02 04:37:02;;;;;;;1.88;1.42;;;;;;;21.12;53.20;100818.94;4559834;28;20062;-69
2023/09/02 04:39:13;;;;;;;2.08;1.77;;;;;;;21.08;53.78;100809.41;4552897;28;21074;-70
2023/09/02 04:41:25;;;;;;;2.20;1.45;;;;;;;21.04;53.31;100807.66;4569604;27;20139;-70
2023/09/02 04:43:35;;;;;;;1.80;1.60;;;;;;;21.11;53.00;100823.03;4568379;27;20020;-71
2023/09/02 04:45:47;;;;;;;1.58;1.40;;;;;;;21.12;53.48;100818.94;4553887;28;20580;-69
2023/09/02 04:47:58;;;;;;;1.60;1.42;;;;;;;21.14;53.62;100825.16;4552219;28;20032;-70
2023/09/02 04:50:09;;;;;;;1.92;1.60;;;;;;;21.12;53.40;100826.75;4559848;28;20036;-70
2023/09/02 04:52:19;;;;;;;1.85;1.70;;;;;;;21.12;53.68;100818.94;4553118;27;20017;-70
2023/09/02 04:54:30;;;;;;;1.65;1.50;;;;;;;21.07;53.28;100816.38;4570399;27;20047;-70
2023/09/02 04:56:40;;;;;;;1.70;1.40;;;;;;;21.04;53.32;100816.25;4542702;28;20771;-70
2023/09/02 04:58:52;;;;;;;2.00;1.50;;;;;;;21.09;53.44;100825.41;4552037;28;20032;-70
2023/09/02 05:01:10;;;;;;;1.52;1.40;;;;;;;21.07;53.22;100821.25;4569381;27;20066;-70
2023/09/02 05:03:23;;;;;;;1.80;1.35;;;;;;;21.12;52.86;100836.16;4536974;28;20025;-70
2023/09/02 05:05:34;;;;;;;1.55;1.35;;;;;;;21.12;52.95;100829.63;4560124;28;20032;-71
2023/09/02 05:07:46;;;;;;;1.42;1.33;;;;;;;21.13;53.49;100837.00;4560571;28;20123;-70
2023/09/02 05:09:58;;;;;;;2.28;1.60;;;;;;;21.10;53.38;100835.72;4554662;28;20040;-70
2023/09/02 05:12:09;;;;;;;1.70;1.50;;;;;;;21.05;53.62;100827.38;4555128;28;20041;-70
2023/09/02 05:14:19;;;;;;;1.90;1.50;;;;;;;21.09;53.28;100834.03;4568905;27;20064;-70
2023/09/02 05:16:30;;;;;;;1.92;1.70;;;;;;;21.11;53.26;100840.25;4568921;27;20070;-70
2023/09/02 05:18:40;;;;;;;1.90;1.50;;;;;;;21.08;53.53;100832.38;4542590;28;20073;-70
2023/09/02 05:20:54;;;;;;;1.98;1.70;;;;;;;21.10;53.81;100844.34;4567951;27;20569;-70
2023/09/02 05:23:04;;;;;;;1.88;1.65;;;;;;;21.11;53.76;100846.00;4561302;28;20032;-70
2023/09/02 05:25:15;;;;;;;1.83;1.55;;;;;;;21.09;53.92;100851.25;4559244;28;20040;-70
2023/09/02 05:27:25;;;;;;;2.83;1.65;;;;;;;21.03;53.83;100838.38;4559039;28;20092;-70
2023/09/02 05:29:36;;;;;;;1.52;1.40;;;;;;;21.04;53.25;100844.94;4567917;27;20087;-70
2023/09/02 05:31:46;;;;;;;1.73;1.55;;;;;;;21.09;53.58;100850.44;4555572;28;20025;-71
2023/09/02 05:33:57;;;;;;;1.88;1.50;;;;;;;21.09;53.54;100854.13;4567063;27;20509;-70
2023/09/02 05:36:07;;;;;;;2.08;1.65;;;;;;;21.09;54.08;100845.50;4567495;27;20063;-69
2023/09/02 05:38:17;;;;;;;2.25;1.85;;;;;;;21.09;53.89;100851.25;4559207;28;20482;-70
2023/09/02 05:40:28;;;;;;;2.85;1.80;;;;;;;21.10;54.31;100852.09;4551726;27;20036;-70
2023/09/02 05:42:40;;;;;;;2.67;2.08;;;;;;;21.10;54.30;100852.94;4568392;27;20040;-70
2023/09/02 05:44:50;;;;;;;2.08;1.60;;;;;;;21.10;54.83;100852.09;4569218;27;20029;-70
2023/09/02 05:47:01;;;;;;;2.67;1.65;;;;;;;21.01;54.99;100832.16;4567499;27;20493;-70
2023/09/02 05:49:12;;;;;;;1.85;1.70;;;;;;;21.09;55.23;100856.19;4567540;27;20028;-70
2023/09/02 05:51:23;;;;;;;1.58;1.38;;;;;;;21.05;55.79;100850.31;4569295;27;20036;-70
2023/09/02 05:53:33;;;;;;;1.27;1.17;;;;;;;21.09;57.19;100845.50;4568926;27;20424;-70
2023/09/02 05:55:52;;;;;;;1.98;1.70;;;;;;;21.10;55.35;100847.19;4568951;27;20468;-70
2023/09/02 05:58:02;;;;;;;2.33;1.80;;;;;;;21.09;55.57;100844.69;4566656;27;20591;-70
2023/09/02 06:00:13;;;;;;;2.40;1.80;;;;;;;21.06;55.48;100843.38;4568156;27;20059;-70
2023/09/02 06:02:24;;;;;;;2.38;1.67;;;;;;;21.11;55.28;100851.72;4567774;27;20044;-70
2023/09/02 06:04:34;;;;;;;2.35;1.90;;;;;;;21.10;55.57;100864.44;4567119;27;20508;-70
2023/09/02 06:06:45;;;;;;;2.13;1.75;;;;;;;21.10;55.62;100869.31;4568273;27;20047;-70
2023/09/02 06:08:55;;;;;;;1.85;1.63;;;;;;;21.13;55.61;100875.19;4566917;27;20044;-70
2023/09/02 06:11:06;;;;;;;2.28;1.80;;;;;;;21.12;55.21;100866.94;4568799;27;20056;-70
2023/09/02 06:13:17;;;;;;;2.03;1.67;;;;;;;21.11;55.79;100871.81;4567675;27;20066;-69
2023/09/02 06:15:27;;;;;;;2.40;1.80;;;;;;;21.10;55.61;100869.31;4567629;27;20040;-70
2023/09/02 06:17:37;;;;;;;2.00;1.80;;;;;;;21.13;55.84;100875.19;4567565;27;20084;-70
2023/09/02 06:19:48;;;;;;;2.50;1.95;;;;;;;21.12;56.18;100884.97;4569018;27;20499;-71
2023/09/02 06:21:58;;;;;;;2.42;1.90;;;;;;;21.11;56.13;100889.03;4566611;27;20485;-69
2023/09/02 06:24:09;;;;;;;1.90;1.65;;;;;;;21.12;56.39;100884.16;4552170;28;20119;-69
2023/09/02 06:26:19;;;;;;;2.25;1.98;;;;;;;21.11;56.74;100883.31;4567772;27;20123;-70
2023/09/02 06:28:29;;;;;;;2.10;1.77;;;;;;;21.07;56.48;100879.50;4566201;27;20032;-70
2023/09/02 06:30:40;;;;;;;2.00;1.70;;;;;;;21.11;56.90;100888.19;4568148;27;20584;-69
2023/09/02 06:32:51;;;;;;;1.98;1.70;;;;;;;21.10;57.30;100892.28;4548674;28;20609;-69
2023/09/02 06:35:02;;;;;;;2.45;1.83;;;;;;;21.13;57.07;100898.13;4552387;28;20032;-70
2023/09/02 06:37:12;;;;;;;1.70;1.60;;;;;;;21.13;57.54;100908.78;4567219;27;20034;-70
2023/09/02 06:39:22;;;;;;;2.63;1.60;;;;;;;21.09;57.71;100890.63;4566967;27;20036;-70
2023/09/02 06:41:33;;;;;;;2.35;1.77;;;;;;;21.13;58.65;100901.00;4568429;27;20051;-70
2023/09/02 06:43:44;;;;;;;1.60;1.42;;;;;;;21.11;58.43;100891.91;4566154;27;20477;-70
2023/09/02 06:45:54;;;;;;;1.30;1.20;;;;;;;21.08;58.45;100892.66;4566617;27;20546;-70
2023/09/02 06:48:05;;;;;;;1.52;1.33;;;;;;;21.10;58.15;100898.88;4567377;27;20409;-70
2023/09/02 06:50:16;;;;;;;1.50;1.40;;;;;;;21.13;58.07;100914.50;4568376;27;20606;-70
2023/09/02 06:52:26;;;;;;;1.85;1.33;;;;;;;21.08;57.45;100940.59;4569356;27;20044;-70
2023/09/02 06:54:37;;;;;;;1.55;1.42;;;;;;;21.10;57.09;100952.56;4570115;27;20143;-70
2023/09/02 06:56:47;;;;;;;1.63;1.30;;;;;;;21.11;57.45;100932.09;4571333;27;20052;-70
2023/09/02 06:58:58;;;;;;;1.88;1.63;;;;;;;21.14;58.35;100928.50;4570506;27;20037;-70
2023/09/02 07:01:18;;;;;;;1.35;1.20;;;;;;;21.11;58.31;100923.50;4569015;27;20036;-70
2023/09/02 07:03:29;;;;;;;1.60;1.50;;;;;;;21.12;58.28;100922.28;4553117;28;20608;-70
2023/09/02 07:05:39;;;;;;;1.35;1.25;;;;;;;21.14;58.23;100924.78;4569983;27;20032;-70
2023/09/02 07:07:49;;;;;;;1.52;1.33;;;;;;;21.07;58.73;100915.97;4569236;27;20067;-70
2023/09/02 07:10:00;;;;;;;1.38;1.15;;;;;;;21.11;58.77;100923.50;4554052;28;20047;-70
2023/09/02 07:12:11;;;;;;;1.50;1.38;;;;;;;21.13;58.50;100926.00;4568904;28;20036;-70
2023/09/02 07:14:21;;;;;;;1.50;1.30;;;;;;;21.07;58.70;100919.69;4557164;28;20037;-70
2023/09/02 07:16:31;;;;;;;1.73;1.17;;;;;;;21.10;58.65;100921.81;4554523;28;20029;-70
2023/09/02 07:18:42;;;;;;;1.50;1.40;;;;;;;21.11;58.82;100934.13;4570710;27;20117;-70
2023/09/02 07:20:57;;;;;;;2.13;1.40;;;;;;;21.15;58.78;100937.97;4569355;27;20052;-70
2023/09/02 07:23:07;;;;;;;1.48;1.33;;;;;;;21.15;59.05;100929.34;4568808;27;20039;-70
2023/09/02 07:25:18;;;;;;;1.42;1.33;;;;;;;21.12;58.56;100932.94;4569630;27;20503;-70
2023/09/02 07:27:31;;;;;;;2.40;1.90;;;;;;;21.12;58.21;100939.50;4569082;27;20082;-70
2023/09/02 07:29:42;;;;;;;1.48;1.30;;;;;;;21.14;59.08;100936.25;4567761;27;20571;-70
2023/09/02 07:31:52;;;;;;;1.92;1.70;;;;;;;21.15;58.68;100943.69;4571101;27;20665;-69
2023/09/02 07:34:03;;;;;;;2.30;2.00;;;;;;;21.09;59.15;100937.34;4569426;27;20032;-70
2023/09/02 07:36:13;;;;;;;1.98;1.75;;;;;;;21.14;59.53;100939.97;4568409;27;20596;-70
2023/09/02 07:38:24;;;;;;;2.75;1.83;;;;;;;21.16;59.67;100954.81;4568017;27;20086;-70
2023/09/02 07:40:35;;;;;;;2.38;1.92;;;;;;;21.10;59.52;100953.41;4568458;27;20110;-70
2023/09/02 07:42:45;;;;;;;2.58;1.95;;;;;;;21.13;59.16;100961.28;4568349;27;20067;-70
2023/09/02 07:44:56;;;;;;;2.22;2.03;;;;;;;21.10;59.56;100961.16;4559784;28;20048;-69
2023/09/02 07:47:06;;;;;;;2.05;1.80;;;;;;;21.15;59.64;100969.53;4557058;28;20067;-66
2023/09/02 07:49:16;;;;;;;2.13;1.90;;;;;;;21.14;59.79;100970.72;4568038;27;20513;-66
2023/09/02 07:51:27;;;;;;;2.28;2.00;;;;;;;21.15;59.58;100979.00;4569147;27;20075;-66
2023/09/02 07:53:37;;;;;;;2.65;2.00;;;;;;;21.16;60.07;100977.78;4554487;28;20111;-67
2023/09/02 07:55:48;;;;;;;2.47;2.10;;;;;;;21.17;60.12;100981.50;4568586;27;20040;-66
2023/09/02 07:58:00;;;;;;;2.17;1.80;;;;;;;21.17;59.88;100985.19;4568277;27;20478;-66
2023/09/02 08:00:11;;;;;;;2.35;2.00;;;;;;;21.15;60.38;100981.00;4570715;27;20031;-66
2023/09/02 08:02:24;;;;;;;2.95;2.10;;;;;;;21.17;60.44;100990.91;4543528;28;20041;-67
2023/09/02 08:04:35;;;;;;;2.28;1.98;;;;;;;21.17;60.57;100985.19;4568249;27;20033;-65
2023/09/02 08:06:45;;;;;;;2.28;2.05;;;;;;;21.18;60.63;100992.63;4568434;27;20123;-66
2023/09/02 08:08:55;;;;;;;2.22;1.92;;;;;;;21.20;60.83;100998.81;4568513;27;20469;-67
2023/09/02 08:11:06;;;;;;;3.00;2.00;;;;;;;21.16;60.44;100997.03;4569077;27;20932;-67
2023/09/02 08:13:17;;;;;;;2.10;1.90;;;;;;;21.20;60.36;101001.69;4541571;28;20017;-68
2023/09/02 08:15:27;;;;;;;2.60;2.22;;;;;;;21.17;60.81;100995.84;4568157;27;20043;-68
2023/09/02 08:17:42;;;;;;;2.35;1.90;;;;;;;21.20;60.94;101007.41;4568879;27;20028;-66
2023/09/02 08:19:52;;;;;;;2.10;1.90;;;;;;;21.22;60.90;101012.78;4560132;28;20044;-66
2023/09/02 08:22:03;;;;;;;2.42;2.10;;;;;;;21.21;61.15;101009.13;4569473;27;20040;-66
2023/09/02 08:24:13;;;;;;;2.40;2.10;;;;;;;21.17;61.11;100999.53;4568544;27;20312;-67
2023/09/02 08:26:24;;;;;;;2.33;2.13;;;;;;;21.16;61.00;101005.63;4568148;27;20037;-67
2023/09/02 08:28:34;;;;;;;2.40;2.20;;;;;;;21.19;61.25;101011.50;4568477;27;20523;-68
2023/09/02 08:30:45;;;;;;;2.22;2.00;;;;;;;21.21;61.07;101017.72;4570100;27;20037;-67
2023/09/02 08:32:55;;;;;;;2.63;2.22;;;;;;;21.20;61.02;101015.22;4560202;28;20532;-67
2023/09/02 08:35:06;;;;;;;2.50;2.10;;;;;;;21.23;61.12;101015.31;4559831;28;20462;-68
2023/09/02 08:37:17;;;;;;;2.38;1.80;;;;;;;21.24;61.51;101021.91;4560046;28;20094;-68
2023/09/02 08:39:27;;;;;;;2.30;2.00;;;;;;;21.21;61.62;101019.75;4568549;27;20070;-67
2023/09/02 08:41:40;;;;;;;2.35;2.10;;;;;;;21.24;61.99;101027.63;4568979;27;20040;-67
2023/09/02 08:43:55;;;;;;;2.05;1.85;;;;;;;21.23;62.11;101031.72;4553862;27;20024;-67
2023/09/02 08:46:08;;;;;;;2.22;1.95;;;;;;;21.21;62.39;101031.22;4570221;27;20742;-67
2023/09/02 08:48:23;;;;;;;2.40;2.00;;;;;;;21.25;62.92;101040.81;4566391;27;21232;-68
2023/09/02 08:50:35;;;;;;;2.28;1.88;;;;;;;21.14;62.49;101026.09;4569068;27;20189;-68
2023/09/02 08:52:46;;;;;;;2.20;1.90;;;;;;;21.23;62.47;101046.06;4569431;27;20071;-68
2023/09/02 08:54:56;;;;;;;2.25;1.92;;;;;;;21.24;62.68;101051.44;4569067;27;20123;-68
2023/09/02 08:57:07;;;;;;;2.20;1.90;;;;;;;21.20;62.75;101047.59;4567124;27;20020;-68
2023/09/02 08:59:18;;;;;;;2.50;1.88;;;;;;;21.22;63.03;101050.13;4566814;27;20040;-69
2023/09/02 09:01:29;;;;;;;2.60;1.92;;;;;;;21.24;62.78;101054.31;4567473;27;20152;-68
2023/09/02 09:03:44;;;;;;;2.30;2.10;;;;;;;21.23;63.02;101058.38;4549919;28;20038;-68
2023/09/02 09:05:58;;;;;;;2.85;2.40;;;;;;;21.26;63.05;101063.41;4553257;28;20032;-68
2023/09/02 09:08:10;;;;;;;2.70;2.20;;;;;;;21.24;63.07;101062.09;4567290;27;20166;-68
2023/09/02 09:10:21;;;;;;;2.78;2.42;;;;;;;21.25;62.68;101067.47;4567765;27;20185;-69
2023/09/02 09:12:32;;;;;;;2.80;2.45;;;;;;;21.26;63.40;101068.31;4559069;28;20046;-68
2023/09/02 09:14:46;;;;;;;2.55;2.33;;;;;;;21.23;63.65;101069.03;4551602;28;20025;-68
2023/09/02 09:16:58;;;;;;;2.47;1.90;;;;;;;21.24;63.82;101065.81;4566343;27;20049;-69
2023/09/02 09:19:08;;;;;;;2.20;2.00;;;;;;;21.23;63.42;101064.09;4567860;27;20110;-68
2023/09/02 09:21:19;;;;;;;2.60;2.30;;;;;;;21.26;63.33;101068.31;4556127;28;20041;-68
2023/09/02 09:23:30;;;;;;;2.22;2.00;;;;;;;21.23;63.24;101066.16;4551696;28;21693;-68
2023/09/02 09:25:42;;;;;;;2.45;2.03;;;;;;;21.26;62.99;101074.06;4556945;28;20058;-68
2023/09/02 09:27:52;;;;;;;3.22;2.33;;;;;;;21.22;63.41;101062.44;4549698;27;20021;-68
2023/09/02 09:30:03;;;;;;;2.35;2.03;;;;;;;21.24;63.09;101071.53;4567954;27;20113;-68
2023/09/02 09:32:14;;;;;;;2.45;2.10;;;;;;;21.25;63.42;101081.81;4567994;27;20024;-68
2023/09/02 09:34:35;;;;;;;2.70;2.00;;;;;;;21.24;63.58;101076.44;4566153;27;20037;-69
2023/09/02 09:36:56;;;;;;;2.60;2.40;;;;;;;21.26;63.49;101077.78;4567831;27;20032;-68
2023/09/02 09:39:08;;;;;;;2.67;2.22;;;;;;;21.26;64.08;101080.66;4567207;27;20029;-68
2023/09/02 09:41:18;;;;;;;2.63;2.20;;;;;;;21.26;64.17;101074.06;4568428;27;20043;-68
2023/09/02 09:43:30;;;;;;;2.20;2.00;;;;;;;21.26;63.99;101074.91;4567113;27;20033;-68
2023/09/02 09:45:51;;;;;;;2.80;2.20;;;;;;;21.30;64.66;101077.88;4567264;27;20036;-68
2023/09/02 09:48:09;;;;;;;2.15;1.83;;;;;;;21.26;64.79;101074.06;4560126;28;20067;-68
2023/09/02 09:50:20;;;;;;;2.28;1.98;;;;;;;21.19;64.81;101057.44;4550540;28;20040;-68
2023/09/02 09:52:30;;;;;;;3.05;2.20;;;;;;;21.30;64.62;101069.25;4549398;28;20095;-68
2023/09/02 09:54:45;;;;;;;2.33;2.08;;;;;;;21.28;64.13;101078.22;4567776;27;20120;-68
2023/09/02 09:56:56;;;;;;;2.78;2.20;;;;;;;21.30;64.44;101077.88;4567445;27;20033;-68
2023/09/02 09:59:08;;;;;;;3.58;2.10;;;;;;;21.30;64.78;101070.09;4567359;27;20033;-68
2023/09/02 10:01:26;;;;;;;2.28;1.90;;;;;;;21.31;64.28;101071.75;4549580;28;20091;-68
2023/09/02 10:03:36;;;;;;;3.17;2.22;;;;;;;21.28;64.18;101066.75;4570179;27;20752;-68
2023/09/02 10:05:46;;;;;;;2.97;2.20;;;;;;;21.30;64.07;101069.25;4569706;27;20040;-69
2023/09/02 10:08:01;;;;;;;2.55;2.00;;;;;;;21.31;64.65;101077.50;4567343;27;20846;-68
2023/09/02 10:10:11;;;;;;;2.90;2.40;;;;;;;21.28;64.30;101061.00;4567629;27;20043;-68
2023/09/02 10:12:22;;;;;;;2.60;2.28;;;;;;;21.30;64.33;101064.34;4565563;27;20094;-68